Date,TemperatureHighF,TemperatureAvgF,TemperatureLowF,DewpointHighF,DewpointAvgF,DewpointLowF,HumidityHigh,HumidityAvg,HumidityLow,PressureMaxIn,PressureMinIn,WindSpeedMaxMPH,WindSpeedAvgMPH,GustSpeedMaxMPH,PrecipitationSumIn
2013-1-1,41,38,29,31,26,15,69,61,50,0.00,40.00,22,17,29,0.00
2013-1-2,33,28,24,19,15,11,62,55,49,0.00,40.00,20,14,27,0.00
2013-1-3,34,29,20,21,16,11,70,60,48,0.00,40.00,20,11,27,0.00
2013-1-4,39,36,34,26,24,21,65,61,54,0.00,40.00,25,19,29,0.00
2013-1-5,42,38,36,31,25,21,77,58,50,0.00,40.00,22,14,29,0.00
2013-1-6,44,39,35,34,31,26,88,71,60,0.00,40.00,16,10,20,0.00
2013-1-7,44,41,38,32,29,25,73,62,47,0.00,40.00,13,9,20,0.00
2013-1-8,45,41,38,37,33,26,84,72,60,0.00,40.00,18,10,22,0.00
2013-1-9,47,41,37,39,36,33,89,81,70,0.00,40.00,18,7,22,0.00
2013-1-10,46,44,40,37,30,26,71,57,47,0.00,40.00,18,11,27,0.00
2013-1-11,42,40,38,42,33,26,98,78,58,0.00,40.00,16,9,18,0.00
2013-1-12,44,43,42,44,42,42,100,99,96,0.00,40.00,16,6,18,0.00
2013-1-13,45,42,40,45,42,40,100,100,100,0.00,40.00,11,4,13,0.00
2013-1-14,52,45,38,48,42,31,100,89,62,0.00,40.00,16,8,22,0.00
2013-1-15,39,37,36,34,29,26,83,71,59,0.00,40.00,13,9,16,0.00
2013-1-19,46,46,46,31,31,31,55,55,55,0.00,40.00,18,18,25,0.00
2013-1-20,50,41,33,27,19,15,48,40,30,0.00,40.00,27,21,36,0.00
2013-1-21,33,31,29,20,16,10,66,53,43,0.00,40.00,20,9,25,0.00
2013-1-22,30,23,17,20,8,0,67,51,40,0.00,40.00,25,21,36,0.00
2013-1-23,20,11,15,2,-37,-100,51,28,41,0.00,40.00,25,17,34,0.00
2013-1-24,24,15,15,6,-21,-100,60,38,43,0.00,40.00,27,16,34,0.00
2013-1-25,24,19,16,19,4,-100,87,59,42,0.00,40.00,20,11,27,0.00
2013-1-26,29,22,18,16,11,8,79,62,42,0.00,40.00,22,14,29,0.00
2013-1-27,34,28,22,14,12,8,69,51,36,0.00,40.00,16,11,22,0.00
2013-1-28,37,33,30,35,25,13,95,74,46,0.00,40.00,13,8,18,0.00
2013-1-29,38,37,35,37,35,33,98,94,91,0.00,40.00,16,9,18,0.00
2013-1-30,54,44,37,53,44,36,100,99,95,0.00,40.00,29,10,40,0.00
2013-1-31,54,41,32,53,-92,-100,97,5,97,0.00,40.00,31,27,45,0.00
2013-2-1,32,31,29,13,-68,-100,49,13,43,0.00,40.00,27,21,36,0.00
2013-2-2,25,25,25,22,22,21,88,86,85,0.00,40.00,9,8,13,0.00
2013-2-3,31,27,25,23,20,16,90,74,53,0.00,40.00,13,8,18,0.00
2013-2-4,31,29,26,22,14,10,75,53,43,0.00,40.00,22,18,29,0.00
2013-2-5,32,29,27,29,24,13,91,79,48,0.00,40.00,13,10,18,0.00
2013-2-6,38,33,29,29,23,8,90,68,39,0.00,40.00,18,11,25,0.00
2013-2-7,34,29,25,26,10,3,72,46,33,0.00,40.00,20,9,22,0.00
2013-2-8,35,33,31,35,30,26,100,90,72,0.00,40.00,29,24,38,0.00
2013-2-11,39,38,38,39,38,38,100,100,100,0.00,40.00,7,4,9,0.00
2013-2-12,42,40,37,39,30,26,100,69,52,0.00,40.00,18,12,25,0.00
2013-2-13,40,36,34,33,28,23,87,73,50,0.00,40.00,11,6,16,0.00
2013-2-14,45,39,36,36,31,22,92,71,39,0.00,40.00,13,7,16,0.00
2013-2-15,46,40,36,37,34,32,92,79,62,0.00,40.00,9,6,20,0.00
2013-2-16,41,36,32,36,26,17,93,70,52,0.00,40.00,20,12,27,0.00
2013-2-17,32,28,20,18,10,7,57,46,38,0.00,40.00,31,25,45,0.00
2013-2-18,35,27,20,18,10,7,59,49,36,0.00,40.00,31,19,43,0.00
2013-2-19,44,39,33,42,30,17,97,73,48,0.00,40.00,20,9,27,0.00
2013-2-20,41,33,28,32,18,13,69,54,45,0.00,40.00,27,21,36,0.00
2013-2-21,33,29,26,17,15,12,63,55,49,0.00,40.00,25,21,31,0.00
2013-2-22,36,31,27,31,23,17,84,70,62,0.00,40.00,25,10,31,0.00
2013-2-23,37,36,35,36,34,31,100,94,84,0.00,40.00,22,14,27,0.00
2013-2-24,42,38,35,36,33,25,97,82,57,0.00,40.00,22,12,29,0.00
2013-2-25,42,38,33,33,27,24,83,65,57,0.00,40.00,11,7,13,0.00
2013-2-26,38,36,35,35,33,31,95,88,82,0.00,40.00,29,12,38,0.00
2013-2-27,41,39,36,41,38,35,100,97,78,0.00,40.00,34,21,45,0.00
2013-2-28,44,40,37,38,36,32,97,86,67,0.00,40.00,13,5,16,0.00
2013-3-1,42,39,36,35,31,28,89,72,57,0.00,40.00,13,9,20,0.00
2013-3-2,38,36,32,29,26,24,87,65,59,0.00,40.00,16,12,18,0.00
2013-3-3,38,33,31,28,22,19,85,62,49,0.00,40.00,20,14,27,0.00
2013-3-4,38,34,29,23,21,18,67,59,52,0.00,40.00,25,19,31,0.00
2013-3-5,44,37,33,34,26,22,84,63,45,0.00,40.00,18,9,25,0.00
2013-3-6,40,39,37,35,33,29,92,79,66,0.00,40.00,31,22,40,0.00
2013-3-7,38,36,34,33,31,28,95,81,69,0.00,40.00,27,19,36,0.00
2013-3-8,42,36,31,33,30,26,100,84,55,0.00,40.00,20,17,27,0.00
2013-3-9,49,42,36,33,25,19,79,53,30,0.00,40.00,18,10,22,0.00
2013-3-10,39,37,35,35,33,31,91,85,79,0.00,40.00,11,6,13,0.00
2013-3-11,48,41,37,45,39,35,97,91,76,0.00,40.00,13,6,16,0.00
2013-3-12,53,50,45,52,47,37,100,90,74,0.00,40.00,29,17,40,0.00
2013-3-13,46,42,37,38,33,25,95,70,43,0.00,40.00,18,8,22,0.00
2013-3-14,41,35,30,32,18,11,74,50,31,0.00,40.00,29,21,43,0.00
2013-3-15,44,37,31,31,20,11,64,51,36,0.00,40.00,25,16,34,0.00
2013-3-16,42,36,32,31,25,19,92,67,52,0.00,40.00,18,8,25,0.00
2013-3-17,38,34,31,29,21,13,83,59,38,0.00,40.00,18,11,22,0.00
2013-3-18,36,31,29,34,18,10,100,59,38,0.00,40.00,25,17,31,0.00
2013-3-19,40,37,34,36,35,30,100,92,75,0.00,40.00,36,19,45,0.00
2013-3-20,43,38,34,32,23,20,75,54,40,0.00,40.00,22,15,31,0.00
2013-3-21,39,34,31,27,24,16,80,67,43,0.00,40.00,20,8,25,0.00
2013-3-22,40,35,30,25,20,14,62,52,45,0.00,40.00,20,15,25,0.00
2013-3-23,42,38,35,25,22,21,60,51,41,0.00,40.00,25,18,31,0.00
2013-3-24,42,38,34,32,24,20,72,57,48,0.00,40.00,18,8,22,0.00
2013-3-25,41,39,37,35,31,27,91,74,62,0.00,40.00,25,13,34,0.00
2013-3-26,47,42,39,33,30,27,77,63,44,0.00,40.00,16,8,25,0.00
2013-3-27,47,42,38,33,28,24,74,57,40,0.00,40.00,20,12,29,0.00
2013-3-28,46,42,39,34,31,29,71,64,57,0.00,40.00,18,11,22,0.00
2013-3-29,49,46,44,33,31,28,63,54,43,0.00,40.00,16,11,22,0.00
2013-3-30,44,44,44,32,32,32,62,62,62,0.00,40.00,11,11,16,0.00
2013-4-1,53,46,40,42,33,15,81,61,35,0.00,40.00,29,16,36,0.00
2013-4-2,42,38,34,19,16,12,51,41,33,0.00,40.00,22,18,34,0.00
2013-4-3,43,38,35,18,17,14,50,41,32,0.00,40.00,25,19,34,0.00
2013-4-4,47,38,35,29,20,15,55,48,41,0.00,40.00,22,10,29,0.00
2013-4-5,55,50,43,36,28,22,74,42,32,0.00,40.00,22,14,31,0.00
2013-4-6,47,41,36,29,19,6,62,43,23,0.00,40.00,22,11,27,0.00
2013-4-7,50,45,40,42,34,29,78,67,57,0.00,40.00,25,14,34,0.00
2013-4-8,62,56,49,44,42,39,81,60,43,0.00,40.00,13,7,18,0.00
2013-4-9,72,46,44,46,23,-100,97,62,27,0.00,40.00,20,8,29,0.00
2013-4-10,56,49,45,51,46,41,96,86,60,0.00,40.00,16,8,43,0.00
2013-4-11,52,48,45,51,46,41,100,91,75,0.00,40.00,16,8,20,0.00
2013-4-12,46,43,41,42,40,36,95,88,76,0.00,40.00,31,22,40,0.00
2013-4-13,52,45,41,41,38,32,92,76,46,0.00,40.00,13,8,18,0.00
2013-4-14,52,49,46,43,35,28,84,59,40,0.00,40.00,20,12,29,0.00
2013-4-15,49,45,43,42,35,31,85,68,58,0.00,40.00,16,8,18,0.00
2013-4-16,57,50,44,51,46,39,95,84,73,0.00,40.00,22,12,29,0.00
2013-4-17,61,55,50,51,44,37,92,68,45,0.00,40.00,13,5,16,0.00
2013-4-18,54,50,47,49,44,39,93,81,56,0.00,40.00,16,10,18,0.00
2013-4-19,64,58,49,60,56,48,100,93,81,0.00,40.00,27,15,40,0.00
2013-4-20,58,52,49,57,40,29,98,64,37,0.00,40.00,22,13,36,0.00
2013-4-21,51,44,39,31,24,19,54,44,31,0.00,40.00,22,10,29,0.00
2013-4-22,48,45,42,40,35,31,76,66,54,0.00,40.00,25,18,31,0.00
2013-4-23,50,45,42,42,38,34,90,76,70,0.00,40.00,25,16,31,0.00
2013-4-24,57,50,45,49,44,40,94,80,67,0.00,40.00,16,9,20,0.00
2013-4-25,61,53,48,50,23,-100,94,51,19,0.00,40.00,25,11,29,0.00
2013-4-26,62,53,46,44,38,26,85,61,27,0.00,40.00,9,4,11,0.00
2013-4-27,63,54,49,42,34,27,68,48,26,0.00,40.00,13,6,18,0.00
2013-4-28,60,52,49,48,40,-100,93,70,37,0.00,40.00,13,7,18,0.00
2013-4-29,56,53,51,49,47,39,94,79,57,0.00,40.00,9,6,11,0.00
2013-4-30,56,52,50,48,45,36,90,78,51,0.00,40.00,16,10,18,0.00
2013-5-1,58,52,48,49,42,34,81,68,52,0.00,40.00,11,7,13,0.00
2013-5-2,63,55,49,50,47,42,91,74,48,0.00,40.00,11,4,13,0.00
2013-5-3,56,54,53,49,46,42,80,73,62,0.00,40.00,18,15,25,0.00
2013-5-4,58,54,49,48,45,41,83,72,65,0.00,40.00,13,10,16,0.00
2013-5-5,54,50,46,48,42,38,85,74,65,0.00,40.00,16,11,18,0.00
2013-5-6,56,51,48,52,47,43,91,85,77,0.00,40.00,13,9,18,0.00
2013-5-7,57,54,49,56,52,49,98,94,86,0.00,40.00,13,8,16,0.00
2013-5-8,60,57,55,60,56,53,98,96,89,0.00,40.00,20,12,25,0.00
2013-5-9,63,55,53,60,54,52,100,98,82,0.00,40.00,16,9,18,0.00
2013-5-10,56,54,53,56,53,52,98,97,96,0.00,40.00,2,0,7,0.00
2013-6-8,72,68,61,63,61,56,85,79,71,0.00,40.00,13,6,20,0.00
2013-6-9,76,68,62,64,61,57,94,78,55,0.00,40.00,7,3,9,0.00
2013-6-10,69,64,61,64,62,61,98,94,75,0.00,40.00,22,11,27,0.00
2013-6-11,75,67,61,66,63,57,99,86,63,0.00,40.00,20,12,31,0.00
2013-6-12,72,68,65,61,55,52,86,61,51,0.00,40.00,22,14,29,0.00
2013-6-13,65,63,58,61,59,56,97,88,77,0.00,40.00,31,12,38,0.00
2013-6-14,67,60,55,60,54,51,93,80,63,0.00,40.00,25,12,31,0.00
2013-6-15,75,67,63,60,56,51,83,69,45,0.00,40.00,13,6,20,0.00
2013-6-17,77,75,70,66,64,63,82,69,61,0.00,40.00,13,8,18,0.00
2013-6-18,71,67,65,68,65,63,97,92,76,0.00,40.00,16,8,20,0.00
2013-6-19,73,67,61,64,50,-100,91,63,36,0.00,40.00,18,10,22,0.00
2013-6-20,75,68,63,60,56,54,76,66,53,0.00,40.00,16,6,18,0.00
2013-6-21,76,72,67,60,57,54,68,58,55,0.00,40.00,13,11,16,0.00
2013-6-22,78,73,67,63,60,58,73,63,58,0.00,40.00,13,7,16,0.00
2013-6-23,79,73,69,69,65,57,90,76,64,0.00,40.00,16,10,20,0.00
2013-6-24,82,74,71,70,69,65,95,83,63,0.00,40.00,18,8,29,0.00
2013-6-25,82,75,69,69,68,66,92,78,62,0.00,40.00,22,7,27,0.00
2013-6-26,78,75,72,70,67,66,88,76,64,0.00,40.00,16,7,16,0.00
2013-6-27,74,71,70,71,69,69,98,94,86,0.00,40.00,16,7,22,0.00
2013-6-28,71,71,71,70,69,69,94,94,93,0.00,40.00,16,11,22,0.00
2013-6-29,71,71,71,70,69,69,94,94,93,0.00,40.00,16,8,20,0.00
2013-7-1,71,71,71,69,69,69,94,93,93,0.00,40.00,13,9,18,0.00
2013-7-2,71,47,71,69,12,-100,94,62,93,0.00,40.00,18,9,22,0.00
2013-7-3,-200,0,200,-100,-100,-100,0,0,100,0.00,40.00,11,7,16,0.00
2013-7-4,-200,0,200,-100,-100,-100,0,0,100,0.00,40.00,13,8,18,0.00
2013-7-5,-200,0,200,-100,-100,-100,0,0,100,0.00,40.00,16,9,18,0.00
2013-7-6,-200,0,200,-100,-100,-100,0,0,100,0.00,40.00,11,8,11,0.00
2013-7-7,-200,0,200,-100,-100,-100,0,0,100,0.00,40.00,13,8,18,0.00
2013-7-8,-200,0,200,-100,-100,-100,0,0,100,0.00,40.00,13,9,16,0.00
2013-7-9,-200,0,200,-100,-100,-100,0,0,100,0.00,40.00,11,5,27,0.00
2013-7-10,-200,0,200,-100,-100,-100,0,0,100,0.00,40.00,16,6,20,0.00
2013-7-11,-200,0,200,-100,-100,-100,0,0,100,0.00,40.00,11,6,13,0.00
2013-7-12,-200,0,200,-100,-100,-100,0,0,100,0.00,40.00,22,10,27,0.00
2013-7-13,-200,0,200,-100,-100,-100,0,0,100,0.00,40.00,20,15,27,0.00
2013-7-14,-200,0,200,-100,-100,-100,0,0,100,0.00,40.00,9,5,11,0.00
2013-7-15,-200,0,200,-100,-100,-100,0,0,100,0.00,40.00,11,6,13,0.00
2013-7-16,87,39,80,71,-22,-100,74,27,47,0.00,40.00,11,5,16,0.00
2013-7-17,87,82,77,75,72,69,86,73,61,0.00,40.00,11,4,13,0.00
2013-7-18,89,64,79,79,36,-100,87,60,65,0.00,40.00,9,5,11,0.00
2013-7-19,85,26,82,78,-44,-100,84,25,76,0.00,40.00,13,9,18,0.00
2013-7-20,-200,0,200,-100,-100,-100,0,0,100,0.00,40.00,16,11,22,0.00
2013-7-21,-200,0,200,-100,-100,-100,0,0,100,0.00,40.00,11,7,13,0.00
2013-7-22,-200,0,200,-100,-100,-100,0,0,100,0.00,40.00,16,10,18,0.00
2013-7-23,83,24,74,-100,-100,-100,0,0,100,0.00,40.00,13,7,20,0.00
2013-7-24,79,76,70,-100,-100,-100,0,0,100,0.00,40.00,20,8,22,0.00
2013-7-25,70,66,64,-100,-100,-100,0,0,100,0.00,40.00,18,14,22,0.00
2013-7-26,76,70,64,-100,-100,-100,0,0,100,0.00,40.00,16,10,20,0.00
2013-7-27,79,74,71,-100,-100,-100,0,0,100,0.00,40.00,13,8,16,0.00
2013-7-28,76,73,70,-100,-100,-100,0,0,100,0.00,40.00,13,6,18,0.00
2013-7-29,81,76,73,-100,-100,-100,0,0,100,0.00,40.00,16,6,18,0.00
2013-7-30,78,74,69,-100,-100,-100,0,0,100,0.00,40.00,13,7,16,0.00
2013-7-31,79,73,68,-100,-100,-100,0,0,100,0.00,40.00,13,6,16,0.00
2013-8-1,75,72,69,-100,-100,-100,0,0,100,0.00,40.00,16,10,20,0.00
2013-8-2,80,74,70,-100,-100,-100,0,0,100,0.00,40.00,16,9,20,0.00
2013-8-3,77,74,70,-100,-100,-100,0,0,100,0.00,40.00,16,11,18,0.00
2013-8-4,77,72,67,-100,-100,-100,0,0,100,0.00,40.00,22,9,31,0.00
2013-8-5,76,69,64,-100,-100,-100,0,0,100,0.00,40.00,16,9,22,0.00
2013-8-6,76,70,66,-100,-100,-100,0,0,100,0.00,40.00,13,8,16,0.00
2013-8-7,76,72,70,-100,-100,-100,0,0,100,0.00,40.00,16,10,20,0.00
2013-8-8,78,74,71,-100,-100,-100,0,0,100,0.00,40.00,16,9,20,0.00
2013-8-9,79,76,75,-100,-100,-100,0,0,100,0.00,40.00,18,12,22,0.00
2013-8-10,80,75,72,-100,-100,-100,0,0,100,0.00,40.00,13,8,18,0.00
2013-8-11,77,71,65,-100,-100,-100,0,0,100,0.00,40.00,11,6,11,0.00
2013-8-12,73,72,71,-100,-100,-100,0,0,100,0.00,40.00,9,5,11,0.00
2013-8-13,73,69,71,-100,-100,-100,0,0,100,0.00,40.00,13,7,18,0.00
2013-8-14,73,67,63,-100,-100,-100,0,0,100,0.00,40.00,20,14,31,0.00
2013-8-15,75,58,63,-100,-100,-100,0,0,100,0.00,40.00,11,8,18,0.00
2013-8-16,77,67,66,-100,-100,-100,0,0,100,0.00,40.00,11,5,13,0.00
2013-8-17,76,71,66,-100,-100,-100,0,0,100,0.00,40.00,9,5,11,0.00
2013-8-18,72,69,69,-100,-100,-100,0,0,100,0.00,40.00,9,7,11,0.00
2013-8-19,76,64,68,-100,-100,-100,0,0,100,0.00,40.00,13,9,18,0.00
2013-8-20,83,74,69,-100,-100,-100,0,0,100,0.00,40.00,11,6,13,0.00
2013-8-21,83,76,72,-100,-100,-100,0,0,100,0.00,40.00,9,4,11,0.00
2013-8-22,76,74,72,-100,-100,-100,0,0,100,0.00,40.00,13,6,29,0.00
2013-8-23,77,75,72,-100,-100,-100,0,0,100,0.00,40.00,16,12,18,0.00
2013-8-24,75,69,65,-100,-100,-100,0,0,100,0.00,40.00,16,11,20,0.00
2013-8-25,78,69,66,-100,-100,-100,0,0,100,0.00,40.00,16,8,18,0.00
2013-8-26,77,74,71,-100,-100,-100,0,0,100,0.00,40.00,18,12,27,0.00
2013-8-27,79,74,72,-100,-100,-100,0,0,100,0.00,40.00,13,11,18,0.00
2013-8-28,75,75,74,-100,-100,-100,0,0,100,0.00,40.00,7,6,9,0.00
2013-8-29,75,72,69,-100,-100,-100,0,0,100,0.00,40.00,18,12,20,0.00
2013-8-30,74,70,69,-100,-100,-100,0,0,100,0.00,40.00,11,9,16,0.00
2013-9-2,78,76,75,-100,-100,-100,0,0,100,0.00,40.00,11,5,13,0.00
2013-9-3,78,75,72,67,-29,-100,76,26,51,0.00,40.00,16,9,20,0.00
2013-9-4,79,72,67,65,59,52,78,63,43,0.00,40.00,16,11,20,0.00
2013-9-5,75,72,66,62,56,46,69,57,43,0.00,40.00,16,12,20,0.00
2013-9-6,71,63,57,52,45,40,66,52,33,0.00,40.00,18,10,25,0.00
2013-9-7,76,70,63,60,52,48,70,54,38,0.00,40.00,13,11,16,0.00
2013-9-8,77,71,66,64,54,-100,69,59,44,0.00,40.00,22,13,27,0.00
2013-9-9,69,64,59,58,50,46,73,59,50,0.00,40.00,22,11,27,0.00
2013-9-10,79,74,67,71,67,59,86,80,75,0.00,40.00,16,11,20,0.00
2013-9-11,85,79,75,74,72,71,90,81,65,0.00,40.00,16,9,20,0.00
2013-9-12,80,76,70,72,70,66,92,83,74,0.00,40.00,18,8,29,0.00
2013-9-13,73,70,63,69,62,52,91,76,61,0.00,40.00,18,11,29,0.00
2013-9-14,66,61,57,53,49,48,76,65,53,0.00,40.00,16,12,22,0.00
2013-9-15,71,60,56,58,45,-100,76,62,39,0.00,40.00,13,8,16,0.00
2013-9-16,70,66,62,59,55,49,80,68,52,0.00,40.00,18,11,22,0.00
2013-9-17,62,57,51,49,42,37,68,57,45,0.00,40.00,20,12,29,0.00
2013-9-18,63,57,56,51,50,49,81,76,70,0.00,40.00,13,7,16,0.00
2013-9-19,74,65,61,58,55,52,77,70,51,0.00,40.00,13,11,16,0.00
2013-9-20,76,69,64,60,58,54,84,70,46,0.00,40.00,11,6,16,0.00
2013-9-21,73,68,63,67,63,59,93,83,74,0.00,40.00,22,12,29,0.00
2013-9-22,72,64,59,67,52,-100,91,69,49,0.00,40.00,25,15,34,0.00
2013-9-23,65,58,53,47,43,40,68,58,44,0.00,40.00,16,11,22,0.00
2013-9-24,71,57,51,52,45,41,76,64,41,0.00,40.00,13,10,18,0.00
2013-9-25,70,62,56,51,47,45,68,57,44,0.00,40.00,20,8,27,0.00
2013-9-26,67,62,61,57,55,53,84,76,62,0.00,40.00,16,10,20,0.00
2013-9-27,64,61,56,57,53,51,87,73,64,0.00,40.00,13,9,16,0.00
2013-9-28,70,62,58,55,47,-100,80,64,55,0.00,40.00,13,7,16,0.00
2013-9-29,66,63,61,58,55,47,88,74,49,0.00,40.00,11,8,13,0.00
2013-9-30,69,64,58,59,54,50,87,69,53,0.00,40.00,11,6,13,0.00
2013-10-1,65,65,65,58,58,58,77,77,77,0.00,40.00,11,11,13,0.00
2013-10-3,72,70,69,59,57,56,68,63,58,0.00,40.00,9,6,11,0.00
2013-10-4,79,70,66,69,63,57,91,79,62,0.00,40.00,18,5,22,0.00
2013-10-5,71,67,64,65,62,60,89,85,76,0.00,40.00,16,7,18,0.00
2013-10-6,67,64,65,66,61,-100,96,92,89,0.00,40.00,16,12,20,0.00
2013-10-7,75,70,64,68,66,53,95,86,73,0.00,40.00,29,14,43,0.00
2013-10-8,65,62,57,54,46,41,70,57,41,0.00,40.00,16,13,22,0.00
2013-10-9,63,59,55,52,48,43,75,65,55,0.00,40.00,22,18,27,0.00
2013-10-10,65,60,55,56,52,49,82,76,64,0.00,40.00,22,18,27,0.00
2013-10-11,68,65,61,62,58,52,83,78,66,0.00,40.00,20,17,27,0.00
2013-10-12,67,64,61,59,51,45,80,63,52,0.00,40.00,25,20,31,0.00
2013-10-13,62,58,56,55,49,-100,83,75,68,0.00,40.00,25,19,29,0.00
2013-10-14,62,58,54,53,49,47,81,72,57,0.00,40.00,13,7,18,0.00
2013-10-15,65,60,56,56,53,49,89,77,60,0.00,40.00,13,8,16,0.00
2013-10-16,63,61,58,59,54,51,89,78,71,0.00,40.00,13,8,16,0.00
2013-10-17,70,65,62,62,61,59,91,86,73,0.00,40.00,18,10,20,0.00
2013-10-18,67,64,60,63,51,45,88,62,44,0.00,40.00,22,15,27,0.00
2013-10-19,63,60,55,54,48,45,79,64,51,0.00,40.00,13,7,16,0.00
2013-10-20,62,57,54,56,39,-100,81,56,39,0.00,40.00,20,14,25,0.00
2013-10-21,65,60,54,50,43,38,70,55,36,0.00,40.00,18,11,20,0.00
2013-10-22,64,60,57,51,49,44,79,66,53,0.00,40.00,18,12,20,0.00
2013-10-23,54,52,50,46,38,33,73,60,48,0.00,40.00,18,10,22,0.00
2013-10-24,54,49,44,39,34,31,74,57,40,0.00,40.00,20,17,27,0.00
2013-10-25,53,50,45,36,34,33,67,54,45,0.00,40.00,22,16,31,0.00
2013-10-26,56,51,47,38,36,33,67,55,44,0.00,40.00,22,17,29,0.00
2013-10-27,57,52,51,36,31,-100,55,46,40,0.00,40.00,20,16,27,0.00
2013-10-28,61,54,48,38,33,-100,64,50,37,0.00,40.00,18,12,22,0.00
2013-10-29,53,49,45,37,32,28,63,52,40,0.00,40.00,16,9,20,0.00
2013-10-30,59,53,47,53,43,35,85,70,56,0.00,40.00,7,4,11,0.00
2013-10-31,65,60,53,59,56,50,92,85,72,0.00,40.00,20,10,27,0.00
2013-11-1,67,64,62,61,58,55,90,79,68,0.00,40.00,25,17,34,0.00
2013-11-2,63,59,55,58,50,43,89,72,53,0.00,40.00,11,6,16,0.00
2013-11-3,54,47,40,44,35,23,77,64,56,0.00,40.00,18,16,27,0.00
2013-11-4,45,41,36,26,22,18,58,47,38,0.00,40.00,20,13,27,0.00
2013-11-5,53,50,45,42,38,24,71,62,42,0.00,40.00,13,8,18,0.00
2013-11-6,60,55,51,55,47,42,88,73,58,0.00,40.00,16,8,20,0.00
2013-11-7,62,56,48,58,50,30,92,80,49,0.00,40.00,20,13,29,0.00
2013-11-8,49,46,44,34,31,28,67,55,45,0.00,40.00,22,19,34,0.00
2013-11-9,50,44,42,36,26,-100,63,52,41,0.00,40.00,18,14,22,0.00
2013-11-10,58,51,49,41,37,32,67,58,43,0.00,40.00,27,18,40,0.00
2013-11-11,54,50,45,37,32,28,52,49,45,0.00,40.00,22,17,34,0.00
2013-11-12,54,42,34,38,30,20,92,63,49,0.00,40.00,22,17,27,0.00
2013-11-13,40,34,31,24,20,16,65,55,45,0.00,40.00,20,15,25,0.00
2013-11-14,48,41,38,26,25,24,59,54,40,0.00,40.00,22,20,29,0.00
2013-11-15,55,51,45,41,36,28,68,56,42,0.00,40.00,13,9,18,0.00
2013-11-18,59,58,56,35,34,34,42,41,40,0.00,40.00,20,19,25,0.00
2013-11-19,51,44,38,31,27,23,57,52,47,0.00,40.00,27,19,36,0.00
2013-11-20,46,38,33,24,19,13,62,46,27,0.00,40.00,25,10,29,0.00
2013-11-21,49,45,38,41,34,20,74,64,43,0.00,40.00,16,8,18,0.00
2013-11-22,54,51,49,50,46,42,94,82,73,0.00,40.00,13,7,16,0.00
2013-11-23,55,43,36,50,26,-100,87,57,39,0.00,40.00,25,19,34,0.00
2013-11-24,34,32,27,19,16,12,53,51,48,0.00,40.00,27,25,36,0.00
2013-11-25,36,30,25,21,15,12,63,54,42,0.00,40.00,25,15,29,0.00
2013-11-26,48,40,37,47,29,19,94,64,44,0.00,40.00,20,12,25,0.00
2013-11-27,61,50,38,60,47,25,97,89,63,0.00,40.00,34,18,47,0.00
2013-11-28,38,34,31,26,18,12,62,51,39,0.00,40.00,29,21,40,0.00
2013-11-29,38,35,32,22,19,13,59,51,41,0.00,40.00,18,10,20,0.00
2013-11-30,39,30,27,29,13,-100,69,58,47,0.00,40.00,16,11,20,0.00
2013-12-1,47,44,39,38,35,31,80,71,63,0.00,40.00,9,4,11,0.00
2013-12-2,45,43,40,40,38,36,91,83,73,0.00,40.00,9,6,11,0.00
2013-12-3,49,43,39,39,37,35,87,78,65,0.00,40.00,11,7,13,0.00
2013-12-4,47,43,40,42,35,31,83,74,68,0.00,40.00,11,6,11,0.00
2013-12-5,54,49,47,54,48,44,100,95,89,0.00,40.00,16,9,18,0.00
2013-12-6,53,47,39,53,45,35,100,92,76,0.00,40.00,16,7,25,0.00
2013-12-7,40,36,35,35,22,-100,87,66,51,0.00,40.00,18,13,25,0.00
2013-12-8,35,32,30,31,20,17,84,60,52,0.00,40.00,18,10,22,0.00
2013-12-9,40,37,32,39,35,30,98,94,85,0.00,40.00,25,17,31,0.00
2013-12-10,40,36,34,35,31,24,95,80,66,0.00,40.00,22,16,27,0.00
2013-12-11,34,33,30,21,19,18,61,56,50,0.00,40.00,25,20,31,0.00
2013-12-12,31,27,24,19,11,7,62,50,42,0.00,40.00,25,16,31,0.00
2013-12-13,36,31,26,18,15,11,54,50,46,0.00,40.00,27,20,36,0.00
2013-12-14,35,25,23,32,16,-100,96,83,47,0.00,40.00,29,20,36,0.00
2013-12-15,39,36,32,36,30,23,97,78,59,0.00,40.00,31,16,40,0.00
2013-12-16,36,30,28,24,13,9,65,48,42,0.00,40.00,22,17,29,0.00
2013-12-17,29,26,24,27,20,9,95,77,45,0.00,40.00,20,12,25,0.00
2013-12-18,37,31,24,23,21,18,78,67,49,0.00,40.00,18,14,25,0.00
2013-12-19,43,39,33,34,28,22,71,65,59,0.00,40.00,18,13,22,0.00
2013-12-20,47,43,38,38,35,32,88,75,63,0.00,40.00,11,4,11,0.00
2013-12-21,53,47,46,47,39,-100,93,82,76,0.00,40.00,11,6,13,0.00
2013-12-22,59,53,47,54,50,46,99,91,74,0.00,40.00,22,11,34,0.00
2013-12-23,55,49,43,55,48,38,100,96,82,0.00,40.00,18,7,22,0.00
2013-12-24,41,37,32,34,26,22,89,64,52,0.00,40.00,22,12,34,0.00
2013-12-25,28,25,21,13,8,6,58,49,39,0.00,40.00,27,11,36,0.00
2013-12-26,37,33,28,27,24,15,74,68,57,0.00,40.00,18,8,20,0.00
2013-12-27,40,36,33,27,24,18,69,60,49,0.00,40.00,18,13,22,0.00
2013-12-28,39,38,38,29,27,26,66,63,59,0.00,40.00,11,11,16,0.00
2013-12-29,44,42,40,44,40,36,98,91,77,0.00,40.00,25,16,29,0.00
2013-12-30,42,38,25,38,30,13,88,72,49,0.00,40.00,22,13,29,0.00
2013-12-31,33,27,21,24,14,8,69,57,46,0.00,40.00,22,12,29,0.00
2014-1-1,33,28,26,19,14,10,58,53,47,0.00,40.00,18,13,22,0.00
2014-1-2,33,27,20,25,22,17,89,82,61,0.00,40.00,25,22,31,0.00